Time;durP1;ratioP1;P1;durP2;ratioP2;P2;SDS_P1;SDS_P2;PMS_P1;PMS_P2;Temp;Humidity;BMP_temperature;BMP_pressure;BME280_temperature;BME280_humidity;BME280_pressure;Samples;Min_cycle;Max_cycle;Signal;HPM_P1;HPM_P2
2021/08/31 00:02:15;;;;;;;13.13;7.53;;;;;;;14.01;95.91;96347.34;4953604;29;20051;-86
2021/08/31 00:04:43;;;;;;;12.98;7.80;;;;;;;14.02;95.97;96346.19;4951534;29;20051;-86
2021/08/31 00:07:10;;;;;;;14.40;7.65;;;;;;;14.01;96.00;96344.59;4954323;29;20060;-86
2021/08/31 00:09:37;;;;;;;11.00;7.20;;;;;;;14.07;95.84;96356.94;4954737;29;20086;-86
2021/08/31 00:12:04;;;;;;;12.57;7.30;;;;;;;14.10;95.70;96342.56;4953996;29;20043;-87
2021/08/31 00:14:31;;;;;;;15.57;7.22;;;;;;;14.02;95.57;96355.22;4954468;29;20052;-86
2021/08/31 00:16:57;;;;;;;11.70;6.90;;;;;;;14.06;95.67;96349.84;4954404;29;20040;-85
2021/08/31 00:19:24;;;;;;;13.73;6.95;;;;;;;14.08;95.52;96353.03;4953856;29;20047;-85
2021/08/31 00:21:52;;;;;;;13.23;7.75;;;;;;;14.05;95.48;96353.75;4954103;29;20051;-87
2021/08/31 00:24:18;;;;;;;11.15;6.80;;;;;;;13.95;95.39;96360.44;4953726;29;20051;-86
2021/08/31 00:26:45;;;;;;;11.48;6.45;;;;;;;13.96;95.55;96359.31;4954173;29;20509;-86
2021/08/31 00:29:11;;;;;;;12.02;7.30;;;;;;;13.86;95.56;96359.75;4953998;29;20047;-86
2021/08/31 00:31:38;;;;;;;17.90;8.07;;;;;;;13.76;95.85;96358.22;4953400;29;20399;-84
2021/08/31 00:34:04;;;;;;;14.60;7.70;;;;;;;13.69;96.25;96363.47;4953383;29;20048;-86
2021/08/31 00:36:31;;;;;;;11.73;7.03;;;;;;;13.69;96.84;96368.16;4953488;29;20047;-86
2021/08/31 00:38:59;;;;;;;12.50;6.97;;;;;;;13.65;96.84;96368.00;4952204;29;20051;-86
2021/08/31 00:41:26;;;;;;;15.73;7.65;;;;;;;13.64;96.91;96366.41;4953380;29;20039;-86
2021/08/31 00:43:53;;;;;;;17.38;8.35;;;;;;;13.64;97.09;96360.94;4953902;29;20051;-86
2021/08/31 00:46:22;;;;;;;14.05;7.40;;;;;;;13.67;97.24;96370.41;4953526;29;20499;-86
2021/08/31 00:48:50;;;;;;;13.88;7.45;;;;;;;13.62;97.26;96367.88;4953945;29;20055;-86
2021/08/31 00:51:20;;;;;;;14.13;7.50;;;;;;;13.61;97.29;96364.34;4953309;29;20047;-87
2021/08/31 00:53:48;;;;;;;11.25;7.50;;;;;;;13.64;97.43;96365.63;4953559;29;20047;-85
2021/08/31 00:56:16;;;;;;;12.98;7.85;;;;;;;13.67;97.29;96370.41;4953081;28;20047;-86
2021/08/31 00:58:43;;;;;;;13.43;7.65;;;;;;;13.73;97.23;96369.03;4953660;29;20055;-86
2021/08/31 01:01:10;;;;;;;14.10;7.78;;;;;;;13.74;96.90;96366.00;4953339;29;20043;-86
2021/08/31 01:03:37;;;;;;;13.02;7.68;;;;;;;13.76;96.63;96371.91;4953249;29;20055;-86
2021/08/31 01:06:04;;;;;;;13.43;7.72;;;;;;;13.72;96.37;96379.19;4952952;29;20071;-86
2021/08/31 01:08:30;;;;;;;15.90;7.45;;;;;;;13.67;96.65;96381.34;4953435;29;20395;-86
2021/08/31 01:10:59;;;;;;;14.07;6.95;;;;;;;13.64;96.80;96384.78;4953480;29;20050;-86
2021/08/31 01:13:29;;;;;;;14.40;7.22;;;;;;;13.69;96.92;96381.81;4952828;29;20051;-86
2021/08/31 01:15:55;;;;;;;16.90;7.85;;;;;;;13.74;96.93;96381.63;4953432;29;20134;-87
2021/08/31 01:18:23;;;;;;;11.93;7.00;;;;;;;13.77;96.67;96378.97;4953016;29;20055;-84
2021/08/31 01:20:52;;;;;;;13.02;8.23;;;;;;;13.77;96.88;96381.72;4953363;29;20070;-85
2021/08/31 01:23:19;;;;;;;13.23;7.78;;;;;;;13.76;96.63;96385.59;4952489;29;20047;-88
2021/08/31 01:25:48;;;;;;;13.02;7.65;;;;;;;13.72;96.46;96384.66;4953202;29;20055;-88
2021/08/31 01:28:16;;;;;;;15.52;8.32;;;;;;;13.70;96.39;96386.16;4952936;29;20054;-87
2021/08/31 01:30:44;;;;;;;14.35;8.50;;;;;;;13.69;96.43;96388.09;4936050;29;20047;-88
2021/08/31 01:33:11;;;;;;;14.38;7.97;;;;;;;13.67;96.39;96395.81;4951967;29;20138;-86
2021/08/31 01:35:38;;;;;;;11.80;7.13;;;;;;;13.63;96.28;96397.66;4953117;29;20061;-88
2021/08/31 01:38:06;;;;;;;13.60;7.20;;;;;;;13.62;96.13;96396.03;4952305;29;20418;-86
2021/08/31 01:40:33;;;;;;;12.55;7.95;;;;;;;13.60;95.90;96403.00;4953247;29;20057;-86
2021/08/31 01:43:01;;;;;;;13.88;8.48;;;;;;;13.57;96.19;96401.72;4952933;29;20054;-81
2021/08/31 01:45:28;;;;;;;13.95;7.57;;;;;;;13.57;96.38;96407.19;4952866;29;20055;-88
2021/08/31 01:47:54;;;;;;;15.25;8.70;;;;;;;13.54;96.14;96405.13;4952648;29;20039;-86
2021/08/31 01:50:21;;;;;;;17.55;8.77;;;;;;;13.49;96.12;96403.41;4952672;29;20092;-88
2021/08/31 01:52:47;;;;;;;16.05;8.98;;;;;;;13.45;96.17;96398.94;4952446;29;20051;-87
2021/08/31 01:55:14;;;;;;;13.02;7.95;;;;;;;13.41;96.10;96398.00;4952335;29;20051;-88
2021/08/31 01:57:40;;;;;;;14.73;8.70;;;;;;;13.39;96.05;96392.06;4952733;29;20047;-88
2021/08/31 02:00:10;;;;;;;13.73;8.88;;;;;;;13.37;96.33;96394.34;4955562;29;20487;-87
2021/08/31 02:02:37;;;;;;;17.88;8.95;;;;;;;13.38;96.38;96404.16;4954497;29;20403;-88
2021/08/31 02:05:04;;;;;;;12.55;8.30;;;;;;;13.45;96.39;96396.19;4952321;29;20518;-87
2021/08/31 02:07:30;;;;;;;15.27;9.23;;;;;;;13.49;96.30;96402.59;4952008;28;20051;-87
2021/08/31 02:09:57;;;;;;;14.30;8.32;;;;;;;13.50;95.99;96399.53;4952591;29;20054;-87
2021/08/31 02:12:24;;;;;;;14.85;8.88;;;;;;;13.48;95.97;96403.75;4951820;29;20566;-88
2021/08/31 02:14:50;;;;;;;12.80;7.93;;;;;;;13.51;95.94;96400.31;4952363;29;20051;-88
2021/08/31 02:17:19;;;;;;;14.07;8.18;;;;;;;13.52;95.62;96402.75;4934724;29;20111;-88
2021/08/31 02:19:45;;;;;;;15.20;8.00;;;;;;;13.52;95.78;96407.38;4952554;29;20069;-87
2021/08/31 02:22:12;;;;;;;16.55;8.50;;;;;;;13.51;95.73;96397.59;4951833;29;20050;-88
2021/08/31 02:24:38;;;;;;;14.50;7.93;;;;;;;13.51;95.69;96400.31;4952477;29;20051;-85
2021/08/31 02:27:05;;;;;;;15.13;8.23;;;;;;;13.55;95.76;96401.25;4951732;29;20396;-84
2021/08/31 02:29:31;;;;;;;14.63;8.15;;;;;;;13.58;95.53;96400.59;4952395;29;20051;-87
2021/08/31 02:31:58;;;;;;;14.48;7.78;;;;;;;13.59;95.13;96402.19;4952066;29;20051;-87
2021/08/31 02:34:26;;;;;;;15.85;8.25;;;;;;;13.57;95.13;96409.91;4951477;29;20057;-86
2021/08/31 02:36:53;;;;;;;14.80;8.57;;;;;;;13.64;95.12;96404.72;4952131;29;20434;-86
2021/08/31 02:39:19;;;;;;;13.50;8.48;;;;;;;13.64;94.80;96406.66;4951781;29;20039;-86
2021/08/31 02:41:46;;;;;;;16.98;8.00;;;;;;;13.69;94.57;96407.25;4952068;29;20048;-84
2021/08/31 02:44:13;;;;;;;14.77;7.60;;;;;;;13.72;94.47;96403.81;4951237;29;20043;-83
2021/08/31 02:46:39;;;;;;;13.80;7.50;;;;;;;13.75;94.34;96411.38;4952194;29;20047;-86
2021/08/31 02:49:06;;;;;;;10.55;6.30;;;;;;;13.68;93.78;96407.59;4951517;29;20043;-82
2021/08/31 02:51:34;;;;;;;13.20;7.53;;;;;;;13.62;93.63;96401.50;4952204;29;20047;-85
2021/08/31 02:54:01;;;;;;;15.77;7.78;;;;;;;13.61;93.83;96407.31;4951677;29;20043;-86
2021/08/31 02:56:27;;;;;;;13.50;7.78;;;;;;;13.54;93.40;96410.59;4952017;29;20089;-86
2021/08/31 02:58:54;;;;;;;11.60;6.93;;;;;;;13.58;93.63;96406.06;4951992;29;20070;-86
2021/08/31 03:01:32;;;;;;;13.30;7.95;;;;;;;13.62;93.16;96415.19;4951521;29;20422;-86
2021/08/31 03:04:00;;;;;;;14.70;7.75;;;;;;;13.62;93.21;96415.19;4951861;29;20051;-86
2021/08/31 03:06:27;;;;;;;11.90;7.40;;;;;;;13.64;93.14;96415.66;4951842;29;20877;-86
2021/08/31 03:08:55;;;;;;;15.15;7.97;;;;;;;13.64;93.06;96410.19;4952203;29;20525;-84
2021/08/31 03:11:22;;;;;;;15.57;8.38;;;;;;;13.64;93.11;96417.59;4951486;29;20055;-84
2021/08/31 03:13:49;;;;;;;17.40;9.50;;;;;;;13.63;93.07;96414.06;4951512;29;20804;-86
2021/08/31 03:16:16;;;;;;;14.85;8.68;;;;;;;13.66;92.97;96413.38;4951312;29;20175;-84
2021/08/31 03:18:43;;;;;;;17.55;9.57;;;;;;;13.68;93.04;96415.81;4952839;28;20055;-86
2021/08/31 03:21:10;;;;;;;19.05;10.40;;;;;;;13.69;93.07;96417.41;4955089;29;20418;-86
2021/08/31 03:23:37;;;;;;;17.13;10.05;;;;;;;13.71;92.71;96417.84;4955062;29;20051;-85
2021/08/31 03:26:05;;;;;;;19.52;10.32;;;;;;;13.65;92.38;96421.94;4954967;29;20051;-84
2021/08/31 03:28:31;;;;;;;19.85;10.77;;;;;;;13.62;92.74;96422.59;4955424;29;20065;-86
2021/08/31 03:30:58;;;;;;;18.55;10.77;;;;;;;13.61;92.91;96430.00;4955387;29;20069;-86
2021/08/31 03:33:24;;;;;;;18.75;11.00;;;;;;;13.63;93.03;96429.69;4954502;29;20055;-86
2021/08/31 03:35:51;;;;;;;17.70;11.20;;;;;;;13.65;93.03;96439.16;4955006;29;20047;-85
2021/08/31 03:38:17;;;;;;;18.00;11.38;;;;;;;13.66;92.91;96440.75;4954530;29;20047;-86
2021/08/31 03:40:44;;;;;;;14.98;10.50;;;;;;;13.56;92.68;96435.69;4954884;29;20047;-84
2021/08/31 03:43:12;;;;;;;21.23;11.85;;;;;;;13.48;93.10;96439.31;4954572;29;20047;-86
2021/08/31 03:45:38;;;;;;;20.67;12.35;;;;;;;13.47;93.20;96443.19;4954776;29;20435;-85
2021/08/31 03:48:06;;;;;;;20.02;11.75;;;;;;;13.45;93.62;96440.75;4954396;29;20051;-85
2021/08/31 03:50:32;;;;;;;21.08;11.77;;;;;;;13.42;93.84;96441.44;4954665;29;20051;-86
2021/08/31 03:52:59;;;;;;;17.88;11.43;;;;;;;13.43;93.68;96443.03;4954695;29;20051;-85
2021/08/31 03:55:26;;;;;;;16.13;10.75;;;;;;;13.34;93.73;96449.72;4954076;29;20054;-86
2021/08/31 03:57:52;;;;;;;15.88;10.52;;;;;;;13.32;94.13;96445.38;4954989;29;20097;-85
2021/08/31 04:00:21;;;;;;;20.40;12.00;;;;;;;13.31;94.03;96446.50;4954229;29;20047;-85
2021/08/31 04:02:47;;;;;;;18.85;11.20;;;;;;;13.34;94.29;96453.25;4954507;29;20075;-86
2021/08/31 04:05:14;;;;;;;19.40;11.27;;;;;;;13.34;94.29;96450.50;4953617;29;20134;-86
2021/08/31 04:07:40;;;;;;;18.63;10.93;;;;;;;13.29;94.28;96459.69;4954629;29;20051;-83
2021/08/31 04:10:08;;;;;;;18.85;10.90;;;;;;;13.30;94.51;96466.78;4954128;29;20507;-85
2021/08/31 04:12:35;;;;;;;17.42;10.85;;;;;;;13.36;94.62;96461.91;4954361;29;20054;-86
2021/08/31 04:15:01;;;;;;;22.92;11.98;;;;;;;13.37;94.64;96460.78;4953882;29;20582;-85
2021/08/31 04:17:29;;;;;;;20.23;11.73;;;;;;;13.46;94.43;96474.38;4954531;29;20619;-84
2021/08/31 04:19:55;;;;;;;17.77;10.63;;;;;;;13.51;94.28;96471.44;4954312;29;20051;-85
2021/08/31 04:22:22;;;;;;;20.55;11.90;;;;;;;13.53;94.00;96475.47;4953706;29;20047;-86
2021/08/31 04:24:49;;;;;;;24.35;11.55;;;;;;;13.52;94.02;96473.03;4954229;29;20047;-86
2021/08/31 04:27:16;;;;;;;17.45;11.00;;;;;;;13.62;93.75;96472.66;4953913;29;20055;-86
2021/08/31 04:29:42;;;;;;;19.20;11.45;;;;;;;13.56;93.56;96477.53;4953709;28;20059;-86
2021/08/31 04:32:09;;;;;;;18.27;10.73;;;;;;;13.62;93.70;96477.31;4952984;29;20063;-83
2021/08/31 04:34:37;;;;;;;18.35;10.93;;;;;;;13.59;93.32;96476.06;4954346;29;20126;-85
2021/08/31 04:37:04;;;;;;;18.95;10.70;;;;;;;13.62;93.12;96475.38;4953443;29;20048;-84
2021/08/31 04:39:30;;;;;;;17.15;10.63;;;;;;;13.68;92.96;96485.00;4954238;29;20047;-86
2021/08/31 04:42:02;;;;;;;14.30;10.20;;;;;;;13.70;92.56;96484.66;4954003;29;20066;-85
2021/08/31 04:44:29;;;;;;;15.68;10.15;;;;;;;13.74;92.70;96486.41;4953879;29;20044;-86
2021/08/31 04:46:55;;;;;;;16.08;9.93;;;;;;;13.73;92.85;96484.81;4953406;29;20051;-86
2021/08/31 04:49:22;;;;;;;15.98;9.25;;;;;;;13.80;92.57;96484.25;4953321;29;20058;-86
2021/08/31 04:51:50;;;;;;;13.20;9.23;;;;;;;13.78;92.31;96483.78;4937341;29;20047;-86
2021/08/31 04:54:17;;;;;;;15.23;9.80;;;;;;;13.72;92.47;96487.84;4934175;29;20058;-86
2021/08/31 04:56:43;;;;;;;13.52;8.35;;;;;;;13.70;92.37;96482.72;4935105;29;20066;-86
2021/08/31 04:59:10;;;;;;;13.05;8.93;;;;;;;13.71;92.18;96487.06;4934295;29;20427;-86
2021/08/31 05:01:36;;;;;;;15.15;9.48;;;;;;;13.67;92.20;96490.78;4937583;29;20055;-86
2021/08/31 05:04:03;;;;;;;14.77;8.48;;;;;;;13.68;92.45;96493.22;4934944;29;20051;-87
2021/08/31 05:06:30;;;;;;;15.77;8.95;;;;;;;13.72;92.48;96493.34;4954045;29;20055;-85
2021/08/31 05:08:58;;;;;;;12.27;7.97;;;;;;;13.76;92.28;96494.28;4953557;29;20051;-86
2021/08/31 05:11:24;;;;;;;12.13;7.95;;;;;;;13.81;92.07;96494.88;4953261;29;20049;-85
2021/08/31 05:13:51;;;;;;;12.20;8.32;;;;;;;13.86;91.78;96493.06;4953127;29;20047;-86
2021/08/31 05:16:19;;;;;;;11.80;7.82;;;;;;;13.92;91.60;96491.72;4952203;29;20478;-86
2021/08/31 05:18:45;;;;;;;12.23;9.05;;;;;;;13.93;91.23;96504.25;4952034;29;20051;-86
2021/08/31 05:21:12;;;;;;;13.20;8.40;;;;;;;13.96;91.47;96496.19;4951225;29;20058;-86
2021/08/31 05:23:39;;;;;;;10.57;7.07;;;;;;;13.96;91.01;96503.59;4952911;29;20514;-85
2021/08/31 05:26:07;;;;;;;12.02;8.10;;;;;;;13.96;91.01;96501.66;4953005;29;20070;-86
2021/08/31 05:28:33;;;;;;;12.80;7.75;;;;;;;13.99;91.10;96501.00;4953566;29;20056;-86
2021/08/31 05:31:00;;;;;;;12.25;7.90;;;;;;;14.02;91.14;96499.53;4953762;29;20065;-86
2021/08/31 05:33:26;;;;;;;11.43;7.75;;;;;;;14.00;91.15;96505.34;4953255;29;20043;-85
2021/08/31 05:35:53;;;;;;;17.90;9.18;;;;;;;14.04;91.11;96505.44;4953297;29;20404;-86
2021/08/31 05:38:19;;;;;;;16.27;8.30;;;;;;;14.03;90.94;96504.66;4952673;29;20443;-86
2021/08/31 05:40:46;;;;;;;15.73;7.70;;;;;;;14.06;91.10;96514.13;4953412;29;20043;-86
2021/08/31 05:43:14;;;;;;;11.15;7.68;;;;;;;14.04;91.33;96506.28;4952781;28;20058;-86
2021/08/31 05:45:40;;;;;;;11.32;8.38;;;;;;;14.00;91.27;96508.06;4953281;29;20047;-86
2021/08/31 05:48:07;;;;;;;14.05;8.82;;;;;;;14.00;91.67;96505.34;4952839;29;20406;-86
2021/08/31 05:50:34;;;;;;;17.42;9.40;;;;;;;13.98;91.87;96506.78;4953206;29;20055;-84
2021/08/31 05:53:00;;;;;;;12.00;8.52;;;;;;;13.99;91.97;96516.59;4953233;29;20044;-86
2021/08/31 05:55:27;;;;;;;15.70;8.80;;;;;;;13.91;91.69;96512.03;4953072;29;20071;-85
2021/08/31 05:57:54;;;;;;;14.77;7.97;;;;;;;13.92;92.21;96519.09;4936013;29;20051;-86
2021/08/31 06:00:22;;;;;;;13.95;9.05;;;;;;;13.89;92.26;96514.31;4943152;29;20047;-83
2021/08/31 06:02:48;;;;;;;13.75;8.45;;;;;;;13.87;92.58;96522.03;4953204;29;20051;-84
2021/08/31 06:05:15;;;;;;;16.70;9.82;;;;;;;13.78;92.77;96519.34;4952510;29;20050;-86
2021/08/31 06:07:42;;;;;;;14.88;8.75;;;;;;;13.74;93.17;96524.72;4952836;29;20058;-84
2021/08/31 06:10:10;;;;;;;14.00;9.07;;;;;;;13.73;93.62;96527.78;4952364;29;20057;-86
2021/08/31 06:12:36;;;;;;;19.05;10.27;;;;;;;13.77;93.81;96524.03;4952878;29;20513;-86
2021/08/31 06:15:03;;;;;;;23.27;9.25;;;;;;;13.73;93.42;96531.34;4952443;29;20055;-86
2021/08/31 06:17:33;;;;;;;21.88;9.40;;;;;;;13.69;93.80;96537.81;4953075;29;20478;-86
2021/08/31 06:19:59;;;;;;;13.60;8.65;;;;;;;13.59;94.25;96533.53;4952821;29;20074;-87
2021/08/31 06:22:26;;;;;;;20.42;9.48;;;;;;;13.53;94.71;96552.06;4952358;29;20047;-86
2021/08/31 06:24:52;;;;;;;15.10;9.30;;;;;;;13.47;95.31;96544.41;4952799;29;20077;-87
2021/08/31 06:27:19;;;;;;;17.50;10.25;;;;;;;13.36;96.07;96554.09;4952169;29;20047;-87
2021/08/31 06:29:45;;;;;;;21.13;10.77;;;;;;;13.38;96.48;96540.91;4952593;29;20051;-88
2021/08/31 06:32:12;;;;;;;23.65;11.50;;;;;;;13.38;96.93;96554.59;4952100;29;20486;-86
2021/08/31 06:34:40;;;;;;;22.80;11.48;;;;;;;13.38;97.38;96557.31;4952634;29;20055;-87
2021/08/31 06:37:06;;;;;;;20.95;11.80;;;;;;;13.36;97.62;96557.63;4952027;29;20051;-85
2021/08/31 06:39:33;;;;;;;23.02;12.48;;;;;;;13.42;97.93;96550.06;4952676;29;20055;-87
2021/08/31 06:42:00;;;;;;;25.40;12.82;;;;;;;13.48;97.89;96555.00;4952791;29;20146;-87
2021/08/31 06:44:26;;;;;;;22.48;12.20;;;;;;;13.53;97.98;96552.06;4952163;29;20047;-87
2021/08/31 06:46:53;;;;;;;21.98;12.50;;;;;;;13.57;97.74;96553.03;4952510;29;20534;-86
2021/08/31 06:49:19;;;;;;;22.70;12.95;;;;;;;13.60;97.78;96553.47;4951931;29;20044;-87
2021/08/31 06:51:47;;;;;;;20.92;11.68;;;;;;;13.64;97.82;96552.47;4952555;29;20059;-87
2021/08/31 06:54:14;;;;;;;21.73;12.65;;;;;;;13.66;97.60;96550.19;4953744;28;20062;-87
2021/08/31 06:56:40;;;;;;;21.98;12.38;;;;;;;13.73;97.54;96545.00;4956118;29;20051;-84
2021/08/31 06:59:07;;;;;;;21.17;12.00;;;;;;;13.73;97.59;96546.94;4955594;29;20051;-86
2021/08/31 07:01:35;;;;;;;21.63;12.38;;;;;;;13.77;97.62;96545.13;4956089;29;20055;-86
2021/08/31 07:04:03;;;;;;;22.35;13.82;;;;;;;13.77;97.62;96545.94;4955617;29;20151;-87
2021/08/31 07:06:29;;;;;;;24.13;12.52;;;;;;;13.83;97.81;96550.09;4956138;29;20062;-87
2021/08/31 07:08:58;;;;;;;21.92;13.20;;;;;;;13.87;97.85;96539.25;4956013;29;20074;-87
2021/08/31 07:11:25;;;;;;;23.10;13.27;;;;;;;13.91;97.68;96550.34;4955572;29;20047;-78
2021/08/31 07:13:52;;;;;;;25.08;13.95;;;;;;;13.93;97.78;96537.13;4955940;29;20047;-79
2021/08/31 07:16:18;;;;;;;21.85;13.48;;;;;;;14.00;97.88;96540.13;4955335;29;20075;-79
2021/08/31 07:18:45;;;;;;;21.30;13.15;;;;;;;14.09;97.77;96540.84;4955899;29;20043;-82
2021/08/31 07:21:11;;;;;;;22.20;13.65;;;;;;;14.12;97.34;96556.59;4955299;29;20525;-87
2021/08/31 07:23:38;;;;;;;24.20;14.32;;;;;;;14.21;97.30;96560.06;4955790;29;20530;-86
2021/08/31 07:26:06;;;;;;;24.13;14.35;;;;;;;14.25;96.89;96560.19;4955385;29;20043;-82
2021/08/31 07:28:32;;;;;;;21.30;13.00;;;;;;;14.27;96.15;96569.69;4955599;29;20047;-84
2021/08/31 07:30:59;;;;;;;18.65;12.40;;;;;;;14.28;95.53;96571.28;4955701;29;20047;-86
2021/08/31 07:33:25;;;;;;;19.45;13.13;;;;;;;14.33;95.51;96579.28;4953505;29;20512;-85
2021/08/31 07:35:52;;;;;;;20.25;12.23;;;;;;;14.44;95.59;96578.88;4951670;29;20537;-84
2021/08/31 07:38:19;;;;;;;24.65;14.55;;;;;;;14.54;95.47;96578.47;4954105;29;20053;-86
2021/08/31 07:40:45;;;;;;;23.95;14.30;;;;;;;14.61;95.35;96579.50;4955249;29;20047;-88
2021/08/31 07:43:14;;;;;;;21.20;13.63;;;;;;;14.72;95.30;96579.09;4938824;29;20048;-87
2021/08/31 07:45:40;;;;;;;19.83;13.00;;;;;;;14.79;94.41;96591.13;4936268;29;20130;-87
2021/08/31 07:48:07;;;;;;;15.52;11.55;;;;;;;14.82;92.98;96595.91;4935259;29;20426;-83
2021/08/31 07:50:35;;;;;;;15.65;10.32;;;;;;;14.84;92.35;96599.13;4935898;29;20435;-87
2021/08/31 07:53:02;;;;;;;15.52;11.43;;;;;;;14.86;92.33;96591.34;4935219;29;20059;-87
2021/08/31 07:55:30;;;;;;;14.48;10.15;;;;;;;14.86;91.19;96602.31;4936202;29;20052;-88
2021/08/31 07:57:56;;;;;;;13.30;10.50;;;;;;;14.91;91.92;96608.72;4935971;29;20055;-85
2021/08/31 08:00:24;;;;;;;14.32;11.10;;;;;;;14.95;91.85;96604.97;4935323;29;20054;-88
2021/08/31 08:02:51;;;;;;;13.75;11.20;;;;;;;14.99;91.57;96614.13;4935669;29;20112;-86
2021/08/31 08:05:17;;;;;;;14.52;10.60;;;;;;;15.03;91.35;96616.97;4944462;28;20047;-86
2021/08/31 08:07:44;;;;;;;16.60;10.52;;;;;;;15.07;91.14;96615.16;4954899;29;20047;-88
2021/08/31 08:10:12;;;;;;;17.95;10.10;;;;;;;15.10;90.75;96623.50;4954117;29;20055;-86
2021/08/31 08:12:38;;;;;;;13.45;10.30;;;;;;;15.14;90.59;96612.66;4954938;29;20055;-86
2021/08/31 08:15:06;;;;;;;17.45;10.90;;;;;;;15.15;89.98;96614.25;4954182;29;20679;-86
2021/08/31 08:17:34;;;;;;;14.48;10.75;;;;;;;15.20;89.11;96618.72;4954491;29;20047;-87
2021/08/31 08:20:01;;;;;;;13.98;9.88;;;;;;;15.22;89.13;96619.19;4954645;29;20043;-87
2021/08/31 08:22:29;;;;;;;13.20;9.02;;;;;;;15.23;88.75;96621.56;4954026;29;20070;-87
2021/08/31 08:24:55;;;;;;;12.15;9.18;;;;;;;15.24;88.91;96628.66;4954609;29;20324;-87
2021/08/31 08:27:22;;;;;;;11.52;9.80;;;;;;;15.32;89.54;96627.75;4953940;29;20048;-87
2021/08/31 08:29:49;;;;;;;14.75;10.30;;;;;;;15.36;89.80;96622.41;4954264;29;20061;-85
2021/08/31 08:32:15;;;;;;;12.60;9.75;;;;;;;15.35;88.41;96624.34;4953728;29;20059;-87
2021/08/31 08:34:43;;;;;;;13.70;9.20;;;;;;;15.34;87.61;96628.22;4954276;29;20047;-86
2021/08/31 08:37:11;;;;;;;10.85;8.32;;;;;;;15.25;87.60;96619.31;4953511;29;20051;-87
2021/08/31 08:39:37;;;;;;;12.23;9.48;;;;;;;15.06;87.81;96627.28;4954353;29;20048;-88
2021/08/31 08:42:06;;;;;;;10.48;8.02;;;;;;;15.09;87.43;96632.09;4953663;29;20102;-88
2021/08/31 08:44:33;;;;;;;9.98;8.15;;;;;;;15.08;86.81;96638.69;4954058;29;20462;-86
2021/08/31 08:46:59;;;;;;;10.77;8.52;;;;;;;15.10;87.48;96636.44;4953000;29;20051;-88
2021/08/31 08:49:26;;;;;;;13.32;8.07;;;;;;;15.14;87.28;96632.66;4951851;29;20457;-85
2021/08/31 08:51:56;;;;;;;11.18;8.10;;;;;;;15.23;87.04;96637.22;4953482;29;20051;-83
2021/08/31 08:54:23;;;;;;;10.25;7.90;;;;;;;15.33;86.78;96637.59;4952975;29;20058;-86
2021/08/31 08:56:50;;;;;;;10.32;7.80;;;;;;;15.31;85.72;96636.34;4953072;29;20538;-86
2021/08/31 08:59:17;;;;;;;10.82;8.20;;;;;;;15.36;86.15;96636.91;4951425;29;20051;-86
2021/08/31 09:01:47;;;;;;;12.90;8.02;;;;;;;15.44;86.01;96637.13;4953582;29;20051;-86
2021/08/31 09:04:16;;;;;;;9.30;7.10;;;;;;;15.42;84.88;96639.44;4953462;29;20047;-87
2021/08/31 09:06:42;;;;;;;13.10;8.07;;;;;;;15.44;84.88;96642.63;4953967;29;20055;-86
2021/08/31 09:09:12;;;;;;;12.20;9.02;;;;;;;15.46;85.62;96641.16;4953194;29;20058;-84
2021/08/31 09:11:39;;;;;;;12.77;9.05;;;;;;;15.52;85.90;96645.28;4953880;29;20166;-87
2021/08/31 09:14:20;;;;;;;12.38;8.15;;;;;;;15.66;85.98;96644.97;4953357;29;20047;-87
2021/08/31 09:16:48;;;;;;;11.20;7.68;;;;;;;15.74;83.86;96646.78;4953446;28;20043;-86
2021/08/31 09:19:16;;;;;;;11.27;7.63;;;;;;;15.82;83.92;96647.81;4953017;29;20067;-87
2021/08/31 09:21:45;;;;;;;14.45;7.18;;;;;;;15.83;82.53;96650.22;4953772;29;20078;-87
2021/08/31 09:24:14;;;;;;;13.88;7.43;;;;;;;15.79;81.90;96654.78;4952875;29;20058;-87
2021/08/31 09:26:42;;;;;;;11.63;8.00;;;;;;;15.78;82.78;96653.19;4936246;29;20047;-87
2021/08/31 09:29:15;;;;;;;11.07;7.55;;;;;;;15.84;83.50;96643.56;4952924;29;20421;-87
2021/08/31 09:31:51;;;;;;;10.45;7.85;;;;;;;15.89;83.86;96648.84;4953541;29;20078;-87
2021/08/31 09:34:36;;;;;;;9.65;7.45;;;;;;;15.96;84.18;96647.44;4952749;29;20527;-86
2021/08/31 09:37:32;;;;;;;10.60;7.57;;;;;;;16.04;83.96;96650.06;4952519;28;20053;-87
2021/08/31 09:40:27;;;;;;;13.57;8.18;;;;;;;16.11;84.29;96652.22;4953088;29;20430;-88
2021/08/31 09:42:58;;;;;;;10.40;6.95;;;;;;;16.09;82.78;96654.53;4952971;29;20058;-87
2021/08/31 09:45:28;;;;;;;10.00;6.38;;;;;;;16.07;81.86;96648.56;4952773;29;20051;-86
2021/08/31 09:47:56;;;;;;;8.45;6.50;;;;;;;15.98;81.62;96645.16;4953330;29;20051;-86
2021/08/31 09:50:29;;;;;;;10.45;7.03;;;;;;;15.90;81.58;96647.69;4952649;29;20514;-86
2021/08/31 09:53:07;;;;;;;8.43;6.53;;;;;;;15.82;82.72;96651.38;4953164;29;20706;-86
2021/08/31 09:55:37;;;;;;;11.55;7.50;;;;;;;15.82;83.14;96654.13;4953220;29;20515;-86
2021/08/31 09:58:08;;;;;;;9.40;7.03;;;;;;;15.83;83.02;96650.22;4952489;29;20054;-86
2021/08/31 10:00:35;;;;;;;10.05;6.10;;;;;;;15.68;82.43;96659.16;4953047;29;20043;-88
2021/08/31 10:03:01;;;;;;;10.50;6.47;;;;;;;15.70;82.26;96662.34;4952591;29;20133;-85
2021/08/31 10:05:28;;;;;;;10.15;6.22;;;;;;;15.71;81.21;96666.69;4952839;29;20419;-86
2021/08/31 10:07:56;;;;;;;8.35;5.43;;;;;;;15.68;81.17;96663.84;4952681;29;20043;-86
2021/08/31 10:10:23;;;;;;;8.82;6.10;;;;;;;15.69;81.04;96666.22;4952433;29;20144;-87
2021/08/31 10:12:53;;;;;;;7.95;5.63;;;;;;;15.68;81.57;96680.31;4953020;29;20085;-86
2021/08/31 10:15:22;;;;;;;8.40;5.72;;;;;;;15.61;81.14;96676.16;4952799;29;20047;-86
2021/08/31 10:17:51;;;;;;;8.20;5.43;;;;;;;15.60;80.73;96676.47;4953018;29;20058;-86
2021/08/31 10:20:20;;;;;;;6.93;5.20;;;;;;;15.52;80.10;96682.91;4952380;29;20499;-84
2021/08/31 10:22:47;;;;;;;10.10;5.75;;;;;;;15.50;80.36;96683.22;4953032;29;20074;-85
2021/08/31 10:25:14;;;;;;;8.93;5.60;;;;;;;15.44;81.20;96687.34;4952479;29;20414;-85
2021/08/31 10:27:42;;;;;;;11.93;6.30;;;;;;;15.20;82.68;96693.59;4952949;29;20051;-85
2021/08/31 10:30:34;;;;;;;7.50;5.75;;;;;;;14.93;84.60;96688.69;4935078;29;20095;-85
2021/08/31 10:33:04;;;;;;;7.95;6.13;;;;;;;14.79;85.17;96689.81;4953479;29;20047;-85
2021/08/31 10:35:52;;;;;;;9.73;6.90;;;;;;;14.72;86.00;96695.03;4952892;29;20630;-86
2021/08/31 10:38:40;;;;;;;10.18;8.02;;;;;;;14.72;86.87;96695.03;4952221;29;20082;-85
2021/08/31 10:41:34;;;;;;;9.75;7.47;;;;;;;14.75;87.70;96694.34;4952648;29;20052;-83
2021/08/31 10:44:01;;;;;;;10.75;7.85;;;;;;;14.77;87.66;96699.50;4952873;29;20143;-85
2021/08/31 10:47:06;;;;;;;13.98;8.43;;;;;;;14.75;87.91;96710.81;4952724;29;20055;-85
2021/08/31 10:49:33;;;;;;;10.32;7.30;;;;;;;14.74;88.13;96709.19;4952307;29;20050;-85
2021/08/31 10:52:08;;;;;;;11.93;7.32;;;;;;;14.70;87.50;96712.94;4952615;29;20043;-85
2021/08/31 10:54:44;;;;;;;10.57;7.47;;;;;;;14.69;87.12;96712.16;4952261;29;20062;-86
2021/08/31 10:57:55;;;;;;;8.95;6.30;;;;;;;14.69;85.31;96712.16;4952003;29;20048;-86
2021/08/31 11:00:47;;;;;;;8.55;6.30;;;;;;;14.65;86.20;96718.63;4951376;29;20052;-86
2021/08/31 11:03:31;;;;;;;10.88;6.63;;;;;;;14.70;86.38;96721.97;4951911;29;20058;-85
2021/08/31 11:06:20;;;;;;;11.45;7.18;;;;;;;14.77;86.74;96719.50;4952300;29;20507;-86
2021/08/31 11:09:20;;;;;;;10.77;7.65;;;;;;;14.81;87.01;96725.91;4952055;29;20044;-86
2021/08/31 11:11:51;;;;;;;12.40;7.28;;;;;;;14.81;85.74;96717.69;4951846;29;20054;-84
2021/08/31 11:14:18;;;;;;;9.23;6.72;;;;;;;14.83;85.93;96723.66;4951840;29;20051;-87
2021/08/31 11:16:49;;;;;;;9.95;7.25;;;;;;;14.86;85.37;96717.47;4952428;29;20047;-84
2021/08/31 11:19:29;;;;;;;9.35;7.53;;;;;;;14.87;85.10;96721.00;4951708;29;20082;-84
2021/08/31 11:21:57;;;;;;;8.82;6.20;;;;;;;14.91;84.72;96723.88;4952345;29;20423;-86
2021/08/31 11:24:24;;;;;;;8.93;6.22;;;;;;;14.95;84.87;96716.59;4951877;29;20054;-85
2021/08/31 11:27:00;;;;;;;8.50;6.22;;;;;;;14.99;83.67;96731.25;4952263;29;20053;-83
2021/08/31 11:29:28;;;;;;;9.10;6.63;;;;;;;15.02;83.26;96725.88;4951743;29;20043;-86
2021/08/31 11:32:00;;;;;;;9.77;6.25;;;;;;;15.01;82.23;96723.47;4952223;29;20142;-85